Terminal Aerodrome Forecast
Issued by NWS

Home | Current Version | Previous Version | Text Only | Print | Product List | Glossary On
Versions: 1 2 3 4 5 6 7 8 9 10 11 12 13 14 15 16
000
FTUS44 KTSA 020200 AAA
TAFBVO
TAF AMD
KBVO 020221Z 0202/0224 17007KT P6SM SCT250
     FM020900 17006KT P6SM BKN250
     FM021200 21008KT P6SM OVC025 PROB30 0212/0218 3SM TSRA BKN050CB
     FM021800 26009KT P6SM BKN050 PROB30 0218/0224 2SM +TSRA
      BKN030CB=

USA.gov is the U.S. government's official web portal to all federal, state and local government web resources and services.